createdAt,value
2018-06-01T00:00:40.843Z,0
2018-06-01T00:01:41.597Z,0
2018-06-01T00:02:41.592Z,0
2018-06-01T00:03:41.304Z,0
2018-06-01T00:04:41.298Z,0
2018-06-01T00:05:41.831Z,0
2018-06-01T00:06:41.553Z,0
2018-06-01T00:07:41.265Z,0
2018-06-01T00:08:41.257Z,0
2018-06-01T00:09:41.334Z,0
2018-06-01T00:10:41.240Z,0
2018-06-01T00:11:41.498Z,0
2018-06-01T00:12:41.673Z,0
2018-06-01T00:13:41.206Z,0
2018-06-01T00:14:41.197Z,0
2018-06-01T00:15:41.183Z,0
2018-06-01T00:16:41.437Z,0
2018-06-01T00:17:41.163Z,0
2018-06-01T00:18:40.893Z,0
2018-06-01T00:19:41.141Z,0
2018-06-01T00:20:41.143Z,0
2018-06-01T00:21:41.651Z,0
2018-06-01T00:22:40.857Z,0
2018-06-01T00:23:41.108Z,0
2018-06-01T00:24:40.829Z,0
2018-06-01T00:25:40.819Z,0
2018-06-01T00:26:41.609Z,0
2018-06-01T00:27:41.606Z,0
2018-06-01T00:28:41.319Z,0
2018-06-01T00:29:41.039Z,0
2018-06-01T00:30:41.306Z,0
2018-06-01T00:31:41.027Z,0
2018-06-01T00:32:41.014Z,0
2018-06-01T00:33:41.284Z,0
2018-06-01T00:34:41.260Z,0
2018-06-01T00:35:41.247Z,0
2018-06-01T00:36:41.243Z,0
2018-06-01T00:37:41.170Z,0
2018-06-01T00:38:40.952Z,0
2018-06-01T00:39:41.213Z,0
2018-06-01T00:40:41.200Z,0
2018-06-01T00:41:41.192Z,0
2018-06-01T00:42:40.909Z,0
2018-06-01T00:43:40.646Z,0
2018-06-01T00:44:40.624Z,0
2018-06-01T00:45:41.151Z,0
2018-06-01T00:46:41.187Z,0
2018-06-01T00:47:41.133Z,0
2018-06-01T00:48:40.627Z,0
2018-06-01T00:49:41.124Z,0
2018-06-01T00:50:41.093Z,0
2018-06-01T00:51:41.077Z,0
2018-06-01T00:52:41.076Z,0
2018-06-01T00:53:41.345Z,0
2018-06-01T00:54:40.787Z,0
2018-06-01T00:55:41.037Z,0
2018-06-01T00:56:40.507Z,0
2018-06-01T00:57:40.752Z,0
2018-06-01T00:58:40.753Z,0
2018-06-01T00:59:41.024Z,0
2018-06-01T01:00:40.192Z,0
2018-06-01T01:01:41.242Z,0
2018-06-01T01:02:40.707Z,0
2018-06-01T01:03:40.696Z,0
2018-06-01T01:04:40.742Z,0
2018-06-01T01:05:40.151Z,0
2018-06-01T01:06:40.665Z,0
2018-06-01T01:07:40.656Z,0
2018-06-01T01:08:40.379Z,0
2018-06-01T01:09:40.891Z,0
2018-06-01T01:10:41.162Z,0
2018-06-01T01:11:40.618Z,0
2018-06-01T01:12:40.339Z,0
2018-06-01T01:13:40.857Z,0
2018-06-01T01:14:40.632Z,0
2018-06-01T01:15:40.304Z,0
2018-06-01T01:16:40.561Z,0
2018-06-01T01:17:41.083Z,0
2018-06-01T01:18:40.807Z,0
2018-06-01T01:19:40.848Z,0
2018-06-01T01:20:40.521Z,0
2018-06-01T01:21:40.500Z,0
2018-06-01T01:22:40.768Z,0
2018-06-01T01:23:40.497Z,0
2018-06-01T01:24:40.474Z,0
2018-06-01T01:25:40.471Z,0
2018-06-01T01:26:40.455Z,0
2018-06-01T01:27:40.723Z,0
2018-06-01T01:28:41.012Z,0
2018-06-01T01:29:40.685Z,0
2018-06-01T01:30:40.421Z,0
2018-06-01T01:31:40.397Z,0
2018-06-01T01:32:40.658Z,0
2018-06-01T01:33:40.384Z,0
2018-06-01T01:34:40.638Z,0
2018-06-01T01:35:40.360Z,0
2018-06-01T01:36:40.613Z,0
2018-06-01T01:37:40.388Z,0
2018-06-01T01:38:40.599Z,0
2018-06-01T01:39:40.058Z,0
2018-06-01T01:40:40.308Z,0
2018-06-01T01:41:40.298Z,0
2018-06-01T01:42:39.756Z,0
2018-06-01T01:43:39.772Z,0
2018-06-01T01:44:40.007Z,0
2018-06-01T01:45:39.993Z,0
2018-06-01T01:46:40.514Z,0
2018-06-01T01:47:39.975Z,0
2018-06-01T01:48:40.227Z,0
2018-06-01T01:49:40.223Z,0
2018-06-01T01:50:40.476Z,0
2018-06-01T01:51:40.459Z,0
2018-06-01T01:52:40.472Z,0
2018-06-01T01:53:40.437Z,0
2018-06-01T01:54:40.432Z,0
2018-06-01T01:55:40.156Z,0
2018-06-01T01:56:39.882Z,0
2018-06-01T01:57:40.407Z,0
2018-06-01T01:58:40.127Z,0
2018-06-01T01:59:40.117Z,0
2018-06-01T02:00:40.103Z,0
2018-06-01T02:01:40.358Z,0
2018-06-01T02:02:40.622Z,0
2018-06-01T02:03:40.647Z,0
2018-06-01T02:04:40.065Z,0
2018-06-01T02:05:40.065Z,0
2018-06-01T02:06:40.572Z,0
2018-06-01T02:07:40.567Z,0
2018-06-01T02:08:40.075Z,0
2018-06-01T02:09:39.752Z,0
2018-06-01T02:10:40.264Z,0
2018-06-01T02:11:39.996Z,0
2018-06-01T02:12:39.977Z,0
2018-06-01T02:13:39.437Z,0
2018-06-01T02:14:39.693Z,0
2018-06-01T02:15:39.948Z,0
2018-06-01T02:16:40.470Z,0
2018-06-01T02:17:39.924Z,0
2018-06-01T02:18:40.185Z,0
2018-06-01T02:19:40.431Z,0
2018-06-01T02:20:39.899Z,0
2018-06-01T02:21:39.896Z,0
2018-06-01T02:22:39.880Z,0
2018-06-01T02:23:40.407Z,0
2018-06-01T02:24:39.592Z,0
2018-06-01T02:25:40.118Z,0
2018-06-01T02:26:39.835Z,0
2018-06-01T02:27:39.816Z,0
2018-06-01T02:28:40.099Z,0
2018-06-01T02:29:40.070Z,0
2018-06-01T02:30:39.530Z,0
2018-06-01T02:31:40.060Z,0
2018-06-01T02:32:39.778Z,0
2018-06-01T02:33:39.501Z,0
2018-06-01T02:34:40.280Z,0
2018-06-01T02:35:39.743Z,0
2018-06-01T02:36:40.195Z,0
2018-06-01T02:37:39.711Z,0
2018-06-01T02:38:39.973Z,0
2018-06-01T02:39:39.707Z,0
2018-06-01T02:40:39.696Z,0
2018-06-01T02:41:39.425Z,0
2018-06-01T02:42:39.939Z,0
2018-06-01T02:43:39.933Z,0
2018-06-01T02:44:39.381Z,0
2018-06-01T02:45:39.910Z,0
2018-06-01T02:46:39.895Z,0
2018-06-01T02:47:39.346Z,0
2018-06-01T02:48:40.128Z,0
2018-06-01T02:49:39.860Z,0
2018-06-01T02:50:39.851Z,0
2018-06-01T02:51:40.135Z,0
2018-06-01T02:52:40.102Z,0
2018-06-01T02:53:39.557Z,0
2018-06-01T02:54:39.813Z,0
2018-06-01T02:55:39.527Z,0
2018-06-01T02:56:39.530Z,0
2018-06-01T02:57:39.508Z,0
2018-06-01T02:58:39.500Z,0
2018-06-01T02:59:39.489Z,0
2018-06-01T03:00:39.475Z,0
2018-06-01T03:01:39.460Z,0
2018-06-01T03:02:39.727Z,0
2018-06-01T03:03:39.454Z,0
2018-06-01T03:04:39.699Z,0
2018-06-01T03:05:39.682Z,0
2018-06-01T03:06:39.419Z,0
2018-06-01T03:07:39.133Z,0
2018-06-01T03:08:39.127Z,0
2018-06-01T03:09:39.655Z,0
2018-06-01T03:10:39.377Z,0
2018-06-01T03:11:39.098Z,0
2018-06-01T03:12:39.349Z,0
2018-06-01T03:13:39.880Z,0
2018-06-01T03:14:39.608Z,0
2018-06-01T03:15:39.327Z,0
2018-06-01T03:16:39.304Z,0
2018-06-01T03:17:39.841Z,0
2018-06-01T03:18:39.811Z,0
2018-06-01T03:19:39.813Z,0
2018-06-01T03:20:39.259Z,0
2018-06-01T03:21:39.517Z,0
2018-06-01T03:22:38.973Z,0
2018-06-01T03:23:39.759Z,0
2018-06-01T03:24:39.214Z,0
2018-06-01T03:25:39.220Z,0
2018-06-01T03:26:39.464Z,5
2018-06-01T03:27:39.462Z,5
2018-06-01T03:28:39.170Z,5
2018-06-01T03:29:39.493Z,5
2018-06-01T03:30:39.429Z,5
2018-06-01T03:31:39.168Z,5
2018-06-01T03:32:39.403Z,5
2018-06-01T03:33:39.389Z,5
2018-06-01T03:34:39.379Z,5
2018-06-01T03:35:39.365Z,10
2018-06-01T03:36:38.830Z,10
2018-06-01T03:37:39.370Z,10
2018-06-01T03:38:39.081Z,10
2018-06-01T03:39:39.060Z,10
2018-06-01T03:40:38.783Z,10
2018-06-01T03:41:39.577Z,10
2018-06-01T03:42:39.291Z,15
2018-06-01T03:43:39.292Z,15
2018-06-01T03:44:39.003Z,15
2018-06-01T03:45:38.997Z,15
2018-06-01T03:46:38.726Z,15
2018-06-01T03:47:39.243Z,15
2018-06-01T03:48:38.962Z,15
2018-06-01T03:49:38.741Z,15
2018-06-01T03:50:38.943Z,20
2018-06-01T03:51:39.231Z,20
2018-06-01T03:52:38.392Z,20
2018-06-01T03:53:39.293Z,20
2018-06-01T03:54:38.905Z,20
2018-06-01T03:55:38.886Z,20
2018-06-01T03:56:39.196Z,20
2018-06-01T03:57:39.142Z,20
2018-06-01T03:58:39.138Z,20
2018-06-01T03:59:39.387Z,20
2018-06-01T04:00:39.371Z,20
2018-06-01T04:01:39.362Z,20
2018-06-01T04:02:39.087Z,20
2018-06-01T04:03:38.810Z,25
2018-06-01T04:04:39.355Z,25
2018-06-01T04:05:38.529Z,25
2018-06-01T04:06:39.047Z,25
2018-06-01T04:07:39.038Z,25
2018-06-01T04:08:38.760Z,30
2018-06-01T04:09:39.017Z,30
2018-06-01T04:10:39.000Z,30
2018-06-01T04:11:38.731Z,30
2018-06-01T04:12:38.983Z,30
2018-06-01T04:13:38.703Z,35
2018-06-01T04:14:38.974Z,35
2018-06-01T04:15:38.945Z,35
2018-06-01T04:16:38.679Z,35
2018-06-01T04:17:39.230Z,35
2018-06-01T04:18:38.387Z,35
2018-06-01T04:19:38.843Z,35
2018-06-01T04:20:38.898Z,40
2018-06-01T04:21:38.888Z,40
2018-06-01T04:22:38.344Z,40
2018-06-01T04:23:39.137Z,45
2018-06-01T04:24:38.854Z,45
2018-06-01T04:25:38.580Z,45
2018-06-01T04:26:38.852Z,45
2018-06-01T04:27:38.585Z,50
2018-06-01T04:28:38.555Z,50
2018-06-01T04:29:38.009Z,50
2018-06-01T04:30:38.529Z,50
2018-06-01T04:31:38.516Z,55
2018-06-01T04:32:38.509Z,55
2018-06-01T04:33:38.811Z,55
2018-06-01T04:34:39.028Z,55
2018-06-01T04:35:38.480Z,55
2018-06-01T04:36:39.002Z,55
2018-06-01T04:37:39.189Z,55
2018-06-01T04:38:38.442Z,55
2018-06-01T04:39:38.701Z,55
2018-06-01T04:40:39.111Z,55
2018-06-01T04:41:38.693Z,55
2018-06-01T04:42:38.145Z,55
2018-06-01T04:43:38.402Z,55
2018-06-01T04:44:38.647Z,60
2018-06-01T04:45:38.373Z,60
2018-06-01T04:46:38.369Z,60
2018-06-01T04:47:38.353Z,60
2018-06-01T04:48:38.604Z,65
2018-06-01T04:49:38.878Z,65
2018-06-01T04:50:38.064Z,65
2018-06-01T04:51:38.584Z,65
2018-06-01T04:52:38.578Z,70
2018-06-01T04:53:38.615Z,70
2018-06-01T04:54:38.034Z,70
2018-06-01T04:55:38.290Z,70
2018-06-01T04:56:38.270Z,70
2018-06-01T04:57:38.525Z,70
2018-06-01T04:58:38.249Z,70
2018-06-01T04:59:38.246Z,75
2018-06-01T05:00:38.506Z,75
2018-06-01T05:01:38.219Z,80
2018-06-01T05:02:37.941Z,80
2018-06-01T05:03:38.453Z,80
2018-06-01T05:04:38.196Z,80
2018-06-01T05:05:37.919Z,85
2018-06-01T05:06:38.172Z,85
2018-06-01T05:07:38.197Z,85
2018-06-01T05:08:38.427Z,85
2018-06-01T05:09:38.138Z,85
2018-06-01T05:10:38.390Z,85
2018-06-01T05:11:37.849Z,90
2018-06-01T05:12:38.108Z,90
2018-06-01T05:13:38.364Z,95
2018-06-01T05:14:38.351Z,100
2018-06-01T05:15:38.609Z,105
2018-06-01T05:16:38.680Z,110
2018-06-01T05:17:38.059Z,115
2018-06-01T05:18:38.568Z,110
2018-06-01T05:19:38.295Z,105
2018-06-01T05:20:38.300Z,105
2018-06-01T05:21:38.557Z,100
2018-06-01T05:22:38.009Z,100
2018-06-01T05:23:38.537Z,100
2018-06-01T05:24:38.253Z,100
2018-06-01T05:25:38.246Z,105
2018-06-01T05:26:37.703Z,105
2018-06-01T05:27:38.223Z,105
2018-06-01T05:28:38.226Z,110
2018-06-01T05:29:38.206Z,110
2018-06-01T05:30:38.199Z,110
2018-06-01T05:31:38.482Z,110
2018-06-01T05:32:38.185Z,110
2018-06-01T05:33:37.900Z,110
2018-06-01T05:34:38.153Z,110
2018-06-01T05:35:37.356Z,110
2018-06-01T05:36:38.409Z,105
2018-06-01T05:37:38.138Z,110
2018-06-01T05:38:38.383Z,110
2018-06-01T05:39:37.319Z,110
2018-06-01T05:40:38.366Z,110
2018-06-01T05:41:38.099Z,110
2018-06-01T05:42:38.077Z,115
2018-06-01T05:43:38.346Z,110
2018-06-01T05:44:38.338Z,110
2018-06-01T05:45:37.799Z,105
2018-06-01T05:46:38.047Z,105
2018-06-01T05:47:37.773Z,100
2018-06-01T05:48:38.290Z,95
2018-06-01T05:49:38.290Z,100
2018-06-01T05:50:38.016Z,105
2018-06-01T05:51:38.277Z,110
2018-06-01T05:52:38.278Z,110
2018-06-01T05:53:37.985Z,110
2018-06-01T05:54:38.072Z,115
2018-06-01T05:55:37.708Z,115
2018-06-01T05:56:37.952Z,115
2018-06-01T05:57:37.684Z,120
2018-06-01T05:58:37.988Z,120
2018-06-01T05:59:37.670Z,120
2018-06-01T06:00:37.654Z,120
2018-06-01T06:01:37.390Z,125
2018-06-01T06:02:37.903Z,125
2018-06-01T06:03:37.939Z,125
2018-06-01T06:04:37.410Z,120
2018-06-01T06:05:37.882Z,120
2018-06-01T06:06:37.605Z,120
2018-06-01T06:07:37.600Z,120
2018-06-01T06:08:37.857Z,115
2018-06-01T06:09:38.103Z,110
2018-06-01T06:10:38.097Z,100
2018-06-01T06:11:37.571Z,95
2018-06-01T06:12:37.825Z,90
2018-06-01T06:13:37.451Z,85
2018-06-01T06:14:37.525Z,90
2018-06-01T06:15:37.255Z,100
2018-06-01T06:16:38.051Z,90
2018-06-01T06:17:37.791Z,90
2018-06-01T06:18:37.758Z,95
2018-06-01T06:19:36.953Z,100
2018-06-01T06:20:38.061Z,100
2018-06-01T06:21:37.728Z,100
2018-06-01T06:22:37.703Z,100
2018-06-01T06:23:37.468Z,95
2018-06-01T06:24:37.449Z,90
2018-06-01T06:25:38.014Z,90
2018-06-01T06:26:37.961Z,100
2018-06-01T06:27:37.689Z,100
2018-06-01T06:28:37.409Z,105
2018-06-01T06:29:37.676Z,95
2018-06-01T06:30:37.653Z,90
2018-06-01T06:31:37.236Z,90
2018-06-01T06:32:37.662Z,90
2018-06-01T06:33:37.147Z,90
2018-06-01T06:34:37.883Z,90
2018-06-01T06:35:37.345Z,90
2018-06-01T06:36:37.340Z,100
2018-06-01T06:37:37.945Z,110
2018-06-01T06:38:37.523Z,110
2018-06-01T06:39:37.577Z,110
2018-06-01T06:40:37.299Z,115
2018-06-01T06:41:37.580Z,110
2018-06-01T06:42:37.030Z,115
2018-06-01T06:43:37.543Z,125
2018-06-01T06:44:37.268Z,135
2018-06-01T06:45:37.272Z,130
2018-06-01T06:46:36.980Z,135
2018-06-01T06:47:37.507Z,140
2018-06-01T06:48:37.499Z,155
2018-06-01T06:49:37.486Z,125
2018-06-01T06:50:37.748Z,120
2018-06-01T06:51:37.745Z,110
2018-06-01T06:52:36.926Z,105
2018-06-01T06:53:37.197Z,105
2018-06-01T06:54:37.451Z,105
2018-06-01T06:55:37.186Z,105
2018-06-01T06:56:37.691Z,110
2018-06-01T06:57:37.155Z,115
2018-06-01T06:58:37.414Z,115
2018-06-01T06:59:37.676Z,120
2018-06-01T07:00:37.398Z,120
2018-06-01T07:01:37.125Z,125
2018-06-01T07:02:37.652Z,125
2018-06-01T07:03:37.115Z,125
2018-06-01T07:04:37.386Z,125
2018-06-01T07:05:37.401Z,125
2018-06-01T07:06:37.608Z,120
2018-06-01T07:07:37.072Z,125
2018-06-01T07:08:37.332Z,115
2018-06-01T07:09:37.338Z,115
2018-06-01T07:10:36.802Z,110
2018-06-01T07:11:37.036Z,110
2018-06-01T07:12:37.290Z,105
2018-06-01T07:13:37.298Z,100
2018-06-01T07:14:37.540Z,100
2018-06-01T07:15:37.060Z,95
2018-06-01T07:16:37.002Z,90
2018-06-01T07:17:36.992Z,85
2018-06-01T07:18:36.977Z,85
2018-06-01T07:19:37.252Z,80
2018-06-01T07:20:37.233Z,80
2018-06-01T07:21:37.222Z,75
2018-06-01T07:22:36.783Z,70
2018-06-01T07:23:36.955Z,65
2018-06-01T07:24:36.942Z,55
2018-06-01T07:25:36.923Z,50
2018-06-01T07:26:37.196Z,50
2018-06-01T07:27:36.940Z,50
2018-06-01T07:28:37.247Z,45
2018-06-01T07:29:36.899Z,45
2018-06-01T07:30:37.155Z,45
2018-06-01T07:31:37.161Z,40
2018-06-01T07:32:36.881Z,40
2018-06-01T07:33:36.862Z,40
2018-06-01T07:34:37.383Z,40
2018-06-01T07:35:37.109Z,40
2018-06-01T07:36:37.113Z,35
2018-06-01T07:37:37.100Z,30
2018-06-01T07:38:37.095Z,30
2018-06-01T07:39:37.087Z,25
2018-06-01T07:40:36.812Z,25
2018-06-01T07:41:36.804Z,20
2018-06-01T07:42:37.322Z,20
2018-06-01T07:43:37.315Z,20
2018-06-01T07:44:37.367Z,15
2018-06-01T07:45:36.777Z,15
2018-06-01T07:46:36.229Z,10
2018-06-01T07:47:37.022Z,10
2018-06-01T07:48:36.479Z,5
2018-06-01T07:49:37.000Z,5
2018-06-01T07:50:36.998Z,5
2018-06-01T07:51:36.459Z,5
2018-06-01T07:52:36.449Z,5
2018-06-01T07:53:36.915Z,5
2018-06-01T07:54:37.144Z,5
2018-06-01T07:55:36.713Z,5
2018-06-01T07:56:36.412Z,5
2018-06-01T07:57:36.694Z,5
2018-06-01T07:58:36.944Z,5
2018-06-01T07:59:36.686Z,5
2018-06-01T08:00:36.650Z,5
2018-06-01T08:01:36.939Z,5
2018-06-01T08:02:37.111Z,5
2018-06-01T08:03:37.395Z,5
2018-06-01T08:04:37.150Z,5
2018-06-01T08:05:36.601Z,5
2018-06-01T08:06:36.662Z,5
2018-06-01T08:07:36.873Z,10
2018-06-01T08:08:37.146Z,10
2018-06-01T08:09:36.303Z,10
2018-06-01T08:10:36.302Z,10
2018-06-01T08:11:36.823Z,10
2018-06-01T08:12:36.853Z,10
2018-06-01T08:13:37.058Z,10
2018-06-01T08:14:37.115Z,10
2018-06-01T08:15:36.791Z,10
2018-06-01T08:16:37.050Z,15
2018-06-01T08:17:37.035Z,15
2018-06-01T08:18:35.962Z,15
2018-06-01T08:19:36.751Z,15
2018-06-01T08:20:36.215Z,15
2018-06-01T08:21:36.728Z,10
2018-06-01T08:22:36.744Z,10
2018-06-01T08:23:36.725Z,10
2018-06-01T08:24:36.188Z,15
2018-06-01T08:25:36.429Z,15
2018-06-01T08:26:36.428Z,15
2018-06-01T08:27:36.412Z,15
2018-06-01T08:28:36.664Z,15
2018-06-01T08:29:36.658Z,10
2018-06-01T08:30:36.919Z,10
2018-06-01T08:31:36.374Z,10
2018-06-01T08:32:36.800Z,10
2018-06-01T08:33:36.615Z,15
2018-06-01T08:34:36.374Z,15
2018-06-01T08:35:36.876Z,15
2018-06-01T08:36:36.594Z,15
2018-06-01T08:37:36.323Z,15
2018-06-01T08:38:36.775Z,15
2018-06-01T08:39:36.786Z,15
2018-06-01T08:40:36.834Z,15
2018-06-01T08:41:36.559Z,15
2018-06-01T08:42:36.803Z,15
2018-06-01T08:43:36.002Z,15
2018-06-01T08:44:36.524Z,15
2018-06-01T08:45:36.252Z,15
2018-06-01T08:46:36.386Z,15
2018-06-01T08:47:36.514Z,15
2018-06-01T08:48:36.500Z,20
2018-06-01T08:49:36.487Z,20
2018-06-01T08:50:35.960Z,20
2018-06-01T08:51:35.935Z,20
2018-06-01T08:52:36.889Z,20
2018-06-01T08:53:36.189Z,20
2018-06-01T08:54:36.179Z,20
2018-06-01T08:55:35.907Z,20
2018-06-01T08:56:36.430Z,20
2018-06-01T08:57:36.413Z,20
2018-06-01T08:58:36.401Z,25
2018-06-01T08:59:36.392Z,25
2018-06-01T09:00:35.856Z,25
2018-06-01T09:01:36.105Z,25
2018-06-01T09:02:36.367Z,25
2018-06-01T09:03:37.924Z,25
2018-06-01T09:04:35.852Z,25
2018-06-01T09:05:36.598Z,30
2018-06-01T09:06:36.356Z,30
2018-06-01T09:07:36.349Z,30
2018-06-01T09:08:36.059Z,35
2018-06-01T09:09:36.039Z,35
2018-06-01T09:10:36.029Z,40
2018-06-01T09:11:36.362Z,40
2018-06-01T09:12:36.297Z,45
2018-06-01T09:13:35.996Z,50
2018-06-01T09:14:36.632Z,55
2018-06-01T09:15:36.287Z,60
2018-06-01T09:16:35.720Z,70
2018-06-01T09:17:36.496Z,80
2018-06-01T09:18:36.221Z,85
2018-06-01T09:19:35.675Z,95
2018-06-01T09:20:36.513Z,105
2018-06-01T09:21:36.264Z,115
2018-06-01T09:22:35.955Z,120
2018-06-01T09:23:36.185Z,120
2018-06-01T09:24:36.425Z,115
2018-06-01T09:25:36.043Z,110
2018-06-01T09:26:36.155Z,100
2018-06-01T09:27:36.449Z,90
2018-06-01T09:28:35.674Z,90
2018-06-01T09:29:35.854Z,85
2018-06-01T09:30:35.901Z,85
2018-06-01T09:31:36.373Z,90
2018-06-01T09:32:36.110Z,95
2018-06-01T09:33:36.248Z,105
2018-06-01T09:34:36.003Z,110
2018-06-01T09:35:36.337Z,120
2018-06-01T09:36:36.327Z,120
2018-06-01T09:37:35.787Z,125
2018-06-01T09:38:35.782Z,125
2018-06-01T09:39:36.019Z,125
2018-06-01T09:40:35.545Z,120
2018-06-01T09:41:36.011Z,115
2018-06-01T09:42:35.735Z,115
2018-06-01T09:43:36.261Z,110
2018-06-01T09:44:35.715Z,110
2018-06-01T09:45:35.455Z,105
2018-06-01T09:46:36.265Z,110
2018-06-01T09:47:36.224Z,110
2018-06-01T09:48:36.240Z,110
2018-06-01T09:49:36.214Z,110
2018-06-01T09:50:35.929Z,110
2018-06-01T09:51:35.938Z,110
2018-06-01T09:52:35.657Z,115
2018-06-01T09:53:35.644Z,120
2018-06-01T09:54:35.918Z,130
2018-06-01T09:55:36.136Z,135
2018-06-01T09:56:35.936Z,150
2018-06-01T09:57:35.691Z,160
2018-06-01T09:58:35.590Z,170
2018-06-01T09:59:35.590Z,180
2018-06-01T10:00:35.846Z,190
2018-06-01T10:01:35.842Z,195
2018-06-01T10:02:35.294Z,195
2018-06-01T10:03:36.079Z,200
2018-06-01T10:04:35.285Z,195
2018-06-01T10:05:35.272Z,200
2018-06-01T10:06:35.538Z,200
2018-06-01T10:07:36.056Z,205
2018-06-01T10:08:35.511Z,205
2018-06-01T10:09:35.772Z,205
2018-06-01T10:10:35.490Z,200
2018-06-01T10:11:36.031Z,210
2018-06-01T10:12:36.011Z,215
2018-06-01T10:13:35.742Z,220
2018-06-01T10:14:34.936Z,230
2018-06-01T10:15:36.226Z,250
2018-06-01T10:16:35.259Z,265
2018-06-01T10:17:35.705Z,285
2018-06-01T10:18:35.696Z,300
2018-06-01T10:19:35.755Z,315
2018-06-01T10:20:35.151Z,320
2018-06-01T10:21:35.678Z,330
2018-06-01T10:22:35.142Z,335
2018-06-01T10:23:35.119Z,335
2018-06-01T10:24:35.382Z,315
2018-06-01T10:25:35.424Z,310
2018-06-01T10:26:36.002Z,310
2018-06-01T10:27:35.365Z,310
2018-06-01T10:28:35.648Z,315
2018-06-01T10:29:35.356Z,325
2018-06-01T10:30:35.623Z,325
2018-06-01T10:31:35.624Z,335
2018-06-01T10:32:35.336Z,360
2018-06-01T10:33:35.059Z,380
2018-06-01T10:34:35.319Z,405
2018-06-01T10:35:35.395Z,425
2018-06-01T10:36:35.576Z,440
2018-06-01T10:37:35.308Z,465
2018-06-01T10:38:35.758Z,495
2018-06-01T10:39:35.168Z,420
2018-06-01T10:40:35.800Z,415
2018-06-01T10:41:35.525Z,415
2018-06-01T10:42:35.537Z,440
2018-06-01T10:43:35.036Z,465
2018-06-01T10:44:35.242Z,410
2018-06-01T10:45:35.243Z,395
2018-06-01T10:46:35.763Z,375
2018-06-01T10:47:35.220Z,365
2018-06-01T10:48:35.531Z,365
2018-06-01T10:49:35.857Z,365
2018-06-01T10:50:35.746Z,365
2018-06-01T10:51:35.455Z,340
2018-06-01T10:52:35.184Z,315
2018-06-01T10:53:35.460Z,320
2018-06-01T10:54:35.233Z,370
2018-06-01T10:55:35.641Z,315
2018-06-01T10:56:35.182Z,285
2018-06-01T10:57:35.431Z,270
2018-06-01T10:58:35.421Z,355
2018-06-01T10:59:35.427Z,735
2018-06-01T11:00:35.145Z,395
2018-06-01T11:01:35.443Z,320
2018-06-01T11:02:35.389Z,295
2018-06-01T11:03:35.129Z,305
2018-06-01T11:04:35.118Z,310
2018-06-01T11:05:35.111Z,295
2018-06-01T11:06:35.103Z,280
2018-06-01T11:07:35.369Z,300
2018-06-01T11:08:35.373Z,335
2018-06-01T11:09:35.637Z,440
2018-06-01T11:10:34.824Z,435
2018-06-01T11:11:35.352Z,345
2018-06-01T11:12:35.342Z,305
2018-06-01T11:13:34.806Z,280
2018-06-01T11:14:35.954Z,320
2018-06-01T11:15:35.112Z,385
2018-06-01T11:16:34.798Z,420
2018-06-01T11:17:34.782Z,650
2018-06-01T11:18:34.774Z,560
2018-06-01T11:19:34.777Z,1000
2018-06-01T11:20:35.562Z,1195
2018-06-01T11:21:35.190Z,590
2018-06-01T11:22:34.761Z,810
2018-06-01T11:23:35.009Z,745
2018-06-01T11:24:35.581Z,645
2018-06-01T11:25:35.572Z,485
2018-06-01T11:26:35.272Z,520
2018-06-01T11:27:35.271Z,625
2018-06-01T11:28:35.251Z,610
2018-06-01T11:29:34.450Z,510
2018-06-01T11:30:35.119Z,480
2018-06-01T11:31:34.980Z,520
2018-06-01T11:32:35.234Z,600
2018-06-01T11:33:34.967Z,565
2018-06-01T11:34:35.225Z,620
2018-06-01T11:35:35.502Z,695
2018-06-01T11:36:35.225Z,830
2018-06-01T11:37:34.679Z,685
2018-06-01T11:38:34.683Z,560
2018-06-01T11:39:34.948Z,615
2018-06-01T11:40:35.212Z,555
2018-06-01T11:41:34.937Z,810
2018-06-01T11:42:34.996Z,645
2018-06-01T11:43:35.187Z,775
2018-06-01T11:44:34.930Z,690
2018-06-01T11:45:34.936Z,775
2018-06-01T11:46:35.442Z,1095
2018-06-01T11:47:35.204Z,775
2018-06-01T11:48:35.170Z,865
2018-06-01T11:49:35.436Z,1015
2018-06-01T11:50:34.638Z,995
2018-06-01T11:51:35.064Z,850
2018-06-01T11:52:34.898Z,1450
2018-06-01T11:53:35.427Z,1115
2018-06-01T11:54:35.155Z,1165
2018-06-01T11:55:35.422Z,1055
2018-06-01T11:56:35.147Z,1910
2018-06-01T11:57:35.467Z,790
2018-06-01T11:58:34.885Z,1325
2018-06-01T11:59:34.618Z,1945
2018-06-01T12:00:34.345Z,1395
2018-06-01T12:01:34.612Z,1840
2018-06-01T12:02:35.080Z,1820
2018-06-01T12:03:35.134Z,1705
2018-06-01T12:04:34.872Z,1350
2018-06-01T12:05:35.399Z,1205
2018-06-01T12:06:34.876Z,1140
2018-06-01T12:07:35.137Z,445
2018-06-01T12:08:34.874Z,505
2018-06-01T12:09:35.406Z,975
2018-06-01T12:10:35.405Z,475
2018-06-01T12:11:35.147Z,485
2018-06-01T12:12:34.894Z,480
2018-06-01T12:13:35.136Z,360
2018-06-01T12:14:35.406Z,335
2018-06-01T12:15:34.623Z,325
2018-06-01T12:16:35.199Z,295
2018-06-01T12:17:35.249Z,260
2018-06-01T12:18:35.148Z,225
2018-06-01T12:19:34.616Z,215
2018-06-01T12:20:35.154Z,200
2018-06-01T12:21:34.875Z,185
2018-06-01T12:22:35.146Z,180
2018-06-01T12:23:35.192Z,195
2018-06-01T12:24:35.142Z,230
2018-06-01T12:25:34.875Z,280
2018-06-01T12:26:34.336Z,420
2018-06-01T12:27:35.133Z,505
2018-06-01T12:28:34.593Z,660
2018-06-01T12:29:35.260Z,795
2018-06-01T12:30:34.589Z,795
2018-06-01T12:31:34.591Z,1045
2018-06-01T12:32:35.115Z,1800
2018-06-01T12:33:34.850Z,1340
2018-06-01T12:34:34.585Z,625
2018-06-01T12:35:35.107Z,570
2018-06-01T12:36:35.371Z,400
2018-06-01T12:37:34.870Z,395
2018-06-01T12:38:35.314Z,370
2018-06-01T12:39:35.098Z,310
2018-06-01T12:40:35.102Z,295
2018-06-01T12:41:35.131Z,245
2018-06-01T12:42:35.372Z,230
2018-06-01T12:43:34.838Z,215
2018-06-01T12:44:34.293Z,220
2018-06-01T12:45:35.358Z,220
2018-06-01T12:46:34.841Z,215
2018-06-01T12:47:34.581Z,220
2018-06-01T12:48:34.814Z,225
2018-06-01T12:49:34.811Z,230
2018-06-01T12:50:34.814Z,235
2018-06-01T12:51:34.811Z,245
2018-06-01T12:52:35.081Z,290
2018-06-01T12:53:35.272Z,345
2018-06-01T12:54:35.335Z,460
2018-06-01T12:55:34.798Z,555
2018-06-01T12:56:34.801Z,685
2018-06-01T12:57:34.812Z,735
2018-06-01T12:58:35.058Z,1565
2018-06-01T12:59:34.868Z,1655
2018-06-01T13:00:34.778Z,1755
2018-06-01T13:01:34.524Z,1770
2018-06-01T13:02:34.795Z,1750
2018-06-01T13:03:35.263Z,1745
2018-06-01T13:04:34.771Z,1710
2018-06-01T13:05:35.314Z,1750
2018-06-01T13:06:34.773Z,1780
2018-06-01T13:07:34.785Z,1705
2018-06-01T13:08:35.036Z,1530
2018-06-01T13:09:35.085Z,875
2018-06-01T13:10:34.783Z,415
2018-06-01T13:11:34.781Z,345
2018-06-01T13:12:34.777Z,330
2018-06-01T13:13:35.049Z,330
2018-06-01T13:14:35.320Z,320
2018-06-01T13:15:35.049Z,255
2018-06-01T13:16:34.795Z,220
2018-06-01T13:17:34.781Z,205
2018-06-01T13:18:35.061Z,200
2018-06-01T13:19:34.780Z,190
2018-06-01T13:20:35.386Z,175
2018-06-01T13:21:34.783Z,170
2018-06-01T13:22:34.783Z,175
2018-06-01T13:23:35.044Z,190
2018-06-01T13:24:35.049Z,215
2018-06-01T13:25:34.785Z,270
2018-06-01T13:26:34.507Z,325
2018-06-01T13:27:35.302Z,325
2018-06-01T13:28:35.309Z,310
2018-06-01T13:29:34.801Z,385
2018-06-01T13:30:35.057Z,585
2018-06-01T13:31:34.771Z,670
2018-06-01T13:32:35.318Z,680
2018-06-01T13:33:34.837Z,450
2018-06-01T13:34:35.296Z,330
2018-06-01T13:35:34.765Z,360
2018-06-01T13:36:34.501Z,385
2018-06-01T13:37:34.758Z,610
2018-06-01T13:38:35.309Z,740
2018-06-01T13:39:35.028Z,760
2018-06-01T13:40:35.022Z,960
2018-06-01T13:41:35.278Z,910
2018-06-01T13:42:35.016Z,885
2018-06-01T13:43:34.486Z,700
2018-06-01T13:44:35.307Z,620
2018-06-01T13:45:34.746Z,585
2018-06-01T13:46:34.768Z,785
2018-06-01T13:47:34.804Z,790
2018-06-01T13:48:35.206Z,810
2018-06-01T13:49:34.737Z,390
2018-06-01T13:50:34.518Z,250
2018-06-01T13:51:34.996Z,200
2018-06-01T13:52:34.489Z,185
2018-06-01T13:53:34.992Z,170
2018-06-01T13:54:35.263Z,160
2018-06-01T13:55:34.465Z,150
2018-06-01T13:56:35.009Z,140
2018-06-01T13:57:34.199Z,135
2018-06-01T13:58:35.252Z,135
2018-06-01T13:59:35.044Z,140
2018-06-01T14:00:35.542Z,150
2018-06-01T14:01:34.985Z,155
2018-06-01T14:02:35.246Z,160
2018-06-01T14:03:34.446Z,165
2018-06-01T14:04:34.445Z,170
2018-06-01T14:05:34.973Z,180
2018-06-01T14:06:34.721Z,180
2018-06-01T14:07:34.424Z,170
2018-06-01T14:08:34.960Z,160